createdAt,value
2022-10-19T00:02:25.816Z,19.67
2022-10-19T00:04:52.429Z,19.58
2022-10-19T00:07:19.049Z,14.75
2022-10-19T00:09:45.929Z,14.57
2022-10-19T00:12:13.369Z,19.27
2022-10-19T00:14:39.962Z,17.58
2022-10-19T00:17:06.749Z,26.15
2022-10-19T00:19:34.074Z,14.05
2022-10-19T00:22:00.664Z,16.55
2022-10-19T00:24:27.382Z,14.90
2022-10-19T00:26:53.993Z,18.73
2022-10-19T00:29:20.634Z,14.10
2022-10-19T00:31:52.088Z,14.75
2022-10-19T00:34:19.195Z,18.13
2022-10-19T00:36:46.606Z,18.30
2022-10-19T00:39:15.414Z,17.23
2022-10-19T00:41:42.689Z,14.25
2022-10-19T00:44:12.271Z,15.38
2022-10-19T00:46:41.528Z,13.13
2022-10-19T00:49:12.965Z,13.15
2022-10-19T00:51:46.038Z,12.35
2022-10-19T00:54:13.199Z,13.00
2022-10-19T00:56:41.423Z,15.32
2022-10-19T00:59:08.981Z,13.77
2022-10-19T01:01:35.814Z,12.55
2022-10-19T01:04:03.386Z,16.48
2022-10-19T01:06:30.282Z,13.40
2022-10-19T01:08:56.985Z,15.07
2022-10-19T01:11:48.704Z,15.07
2022-10-19T01:14:33.597Z,15.18
2022-10-19T01:17:00.183Z,17.65
2022-10-19T01:19:40.249Z,15.48
2022-10-19T01:22:23.421Z,12.02
2022-10-19T01:25:21.797Z,23.42
2022-10-19T01:28:11.718Z,15.77
2022-10-19T01:31:36.877Z,15.95
2022-10-19T01:34:05.126Z,15.93
2022-10-19T01:36:46.859Z,16.23
2022-10-19T01:39:19.236Z,19.55
2022-10-19T01:41:54.447Z,15.93
2022-10-19T01:47:03.117Z,17.40
2022-10-19T01:49:34.764Z,18.75
2022-10-19T01:52:04.428Z,21.83
2022-10-19T01:54:35.412Z,19.10
2022-10-19T01:57:03.169Z,19.20
2022-10-19T01:59:30.573Z,18.73
2022-10-19T02:01:57.625Z,18.15
2022-10-19T02:04:25.658Z,14.57
2022-10-19T02:06:53.488Z,17.33
2022-10-19T02:09:20.410Z,18.35
2022-10-19T02:11:56.119Z,18.48
2022-10-19T02:14:27.830Z,17.38
2022-10-19T02:17:10.526Z,16.20
2022-10-19T02:19:37.572Z,14.38
2022-10-19T02:22:04.541Z,17.55
2022-10-19T02:24:31.354Z,23.65
2022-10-19T02:26:58.373Z,16.52
2022-10-19T02:29:24.974Z,19.95
2022-10-19T02:31:51.589Z,11.25
2022-10-19T02:34:18.292Z,18.00
2022-10-19T02:36:45.068Z,18.95
2022-10-19T02:39:11.742Z,18.08
2022-10-19T02:41:47.161Z,18.60
2022-10-19T02:44:23.963Z,22.45
2022-10-19T02:46:55.667Z,17.60
2022-10-19T02:49:22.590Z,17.30
2022-10-19T02:52:00.738Z,15.75
2022-10-19T02:54:27.617Z,17.45
2022-10-19T02:56:54.852Z,20.88
2022-10-19T02:59:21.534Z,15.98
2022-10-19T03:01:48.189Z,18.25
2022-10-19T03:04:14.966Z,18.98
2022-10-19T03:06:41.714Z,19.98
2022-10-19T03:09:08.793Z,18.20
2022-10-19T03:11:35.462Z,20.33
2022-10-19T03:14:02.203Z,17.23
2022-10-19T03:16:28.812Z,20.48
2022-10-19T03:18:55.426Z,21.88
2022-10-19T03:21:22.052Z,18.75
2022-10-19T03:23:48.682Z,24.23
2022-10-19T03:26:16.498Z,16.85
2022-10-19T03:28:43.384Z,19.90
2022-10-19T03:31:10.210Z,22.73
2022-10-19T03:33:36.795Z,18.15
2022-10-19T03:36:34.057Z,17.52
2022-10-19T03:39:03.673Z,19.80
2022-10-19T03:41:32.911Z,19.27
2022-10-19T03:46:27.034Z,22.10
2022-10-19T03:48:54.133Z,22.75
2022-10-19T03:51:25.939Z,19.65
2022-10-19T03:54:13.458Z,23.30
2022-10-19T03:56:40.142Z,24.90
2022-10-19T03:59:07.454Z,17.20
2022-10-19T04:01:39.714Z,28.90
2022-10-19T04:04:10.059Z,24.02
2022-10-19T04:06:38.565Z,21.42
2022-10-19T04:09:06.605Z,20.25
2022-10-19T04:11:34.842Z,24.60
2022-10-19T04:14:02.351Z,20.02
2022-10-19T04:16:30.349Z,22.92
2022-10-19T04:18:57.155Z,21.05
2022-10-19T04:21:26.169Z,19.42
2022-10-19T04:23:56.950Z,25.58
2022-10-19T04:26:23.773Z,25.33
2022-10-19T04:28:50.529Z,25.85
2022-10-19T04:31:17.306Z,19.00
2022-10-19T04:33:44.122Z,20.08
2022-10-19T04:36:11.947Z,23.02
2022-10-19T04:38:39.107Z,18.73
2022-10-19T04:41:11.269Z,22.88
2022-10-19T04:43:38.328Z,23.00
2022-10-19T04:46:10.972Z,25.40
2022-10-19T04:48:38.774Z,19.02
2022-10-19T04:51:06.280Z,28.80
2022-10-19T04:53:33.726Z,26.98
2022-10-19T04:56:00.877Z,27.88
2022-10-19T04:58:27.559Z,22.92
2022-10-19T05:00:54.200Z,22.20
2022-10-19T05:03:20.873Z,24.08
2022-10-19T05:05:47.567Z,25.15
2022-10-19T05:08:14.295Z,25.98
2022-10-19T05:10:44.258Z,26.02
2022-10-19T05:13:14.233Z,22.20
2022-10-19T05:15:40.855Z,25.42
2022-10-19T05:18:07.572Z,30.30
2022-10-19T05:20:34.244Z,37.72
2022-10-19T05:23:06.138Z,24.92
2022-10-19T05:25:34.070Z,33.25
2022-10-19T05:28:00.743Z,31.92
2022-10-19T05:30:27.354Z,27.42
2022-10-19T05:32:54.059Z,21.75
2022-10-19T05:35:22.618Z,22.13
2022-10-19T05:37:54.744Z,20.60
2022-10-19T05:40:21.480Z,17.33
2022-10-19T05:42:48.191Z,16.90
2022-10-19T05:45:15.033Z,19.73
2022-10-19T05:47:41.598Z,18.35
2022-10-19T05:50:08.681Z,20.00
2022-10-19T05:52:35.284Z,20.88
2022-10-19T05:55:01.945Z,20.92
2022-10-19T05:57:28.647Z,17.98
2022-10-19T05:59:58.386Z,20.77
2022-10-19T06:02:27.931Z,18.75
2022-10-19T06:04:54.527Z,18.80
2022-10-19T06:07:21.122Z,19.77
2022-10-19T06:09:48.094Z,16.15
2022-10-19T06:12:16.219Z,18.70
2022-10-19T06:14:43.229Z,15.75
2022-10-19T06:17:09.915Z,19.20
2022-10-19T06:19:36.841Z,15.98
2022-10-19T06:22:03.529Z,13.52
2022-10-19T06:24:30.312Z,19.70
2022-10-19T06:26:57.014Z,18.98
2022-10-19T06:29:23.774Z,12.43
2022-10-19T06:31:50.580Z,14.52
2022-10-19T06:34:17.321Z,13.40
2022-10-19T06:36:44.095Z,11.45
2022-10-19T06:39:13.447Z,8.60
2022-10-19T06:41:40.179Z,10.00
2022-10-19T06:44:06.812Z,11.00
2022-10-19T06:46:33.989Z,7.57
2022-10-19T06:49:01.876Z,8.40
2022-10-19T06:51:29.842Z,6.88
2022-10-19T06:53:57.102Z,8.63
2022-10-19T06:56:24.944Z,8.52
2022-10-19T06:58:51.867Z,9.25
2022-10-19T07:01:18.620Z,6.78
2022-10-19T07:03:45.406Z,10.75
2022-10-19T07:06:13.335Z,10.82
2022-10-19T07:08:42.072Z,12.77
2022-10-19T07:11:11.516Z,7.63
2022-10-19T07:13:38.819Z,7.55
2022-10-19T07:16:08.539Z,8.05
2022-10-19T07:18:36.026Z,5.35
2022-10-19T07:21:05.193Z,8.18
2022-10-19T07:23:33.475Z,6.40
2022-10-19T07:26:07.145Z,9.48
2022-10-19T07:28:34.482Z,6.93
2022-10-19T07:31:08.918Z,7.65
2022-10-19T07:33:35.809Z,9.68
2022-10-19T07:36:04.415Z,5.63
2022-10-19T07:38:32.035Z,6.15
2022-10-19T07:41:10.346Z,6.63
2022-10-19T07:43:36.977Z,9.85
2022-10-19T07:46:17.615Z,4.40
2022-10-19T07:48:44.553Z,4.63
2022-10-19T07:51:12.607Z,4.72
2022-10-19T07:53:39.753Z,7.75
2022-10-19T07:56:09.244Z,4.35
2022-10-19T07:58:36.708Z,5.45
2022-10-19T08:01:14.893Z,5.30
2022-10-19T08:06:28.760Z,4.78
2022-10-19T08:08:55.936Z,4.65
2022-10-19T08:11:25.464Z,4.15
2022-10-19T08:13:52.647Z,5.32
2022-10-19T08:16:28.150Z,6.07
2022-10-19T08:19:00.293Z,3.53
2022-10-19T08:21:27.975Z,4.13
2022-10-19T08:23:54.994Z,6.63
2022-10-19T08:26:22.074Z,3.70
2022-10-19T08:28:48.942Z,4.13
2022-10-19T08:31:18.312Z,6.38
2022-10-19T08:33:45.263Z,4.97
2022-10-19T08:36:13.553Z,4.63
2022-10-19T08:38:41.442Z,4.53
2022-10-19T08:41:26.437Z,4.55
2022-10-19T08:43:58.595Z,3.20
2022-10-19T08:46:33.763Z,4.05
2022-10-19T08:51:28.445Z,5.18
2022-10-19T08:53:57.914Z,3.97
2022-10-19T08:56:50.895Z,4.93
2022-10-19T08:59:30.877Z,7.20
2022-10-19T09:02:12.526Z,3.60
2022-10-19T09:04:47.968Z,5.13
2022-10-19T09:07:17.493Z,8.75
2022-10-19T09:09:52.115Z,4.15
2022-10-19T09:12:24.689Z,5.80
2022-10-19T09:14:59.208Z,4.80
2022-10-19T09:17:26.068Z,6.32
2022-10-19T09:19:53.030Z,5.53
2022-10-19T09:22:25.123Z,3.97
2022-10-19T09:24:53.314Z,4.85
2022-10-19T09:27:40.170Z,7.78
2022-10-19T09:30:16.002Z,5.47
2022-10-19T09:32:42.849Z,6.28
2022-10-19T09:35:29.898Z,7.30
2022-10-19T09:37:57.028Z,4.50
2022-10-19T09:40:29.279Z,4.13
2022-10-19T09:42:59.445Z,5.90
2022-10-19T09:45:34.165Z,4.10
2022-10-19T09:48:12.763Z,4.68
2022-10-19T09:50:43.433Z,5.65
2022-10-19T09:53:20.626Z,4.93
2022-10-19T09:55:51.384Z,8.02
2022-10-19T09:58:20.268Z,4.25
2022-10-19T10:00:52.375Z,6.55
2022-10-19T10:03:40.547Z,6.80
2022-10-19T10:06:17.610Z,4.93
2022-10-19T10:08:47.673Z,6.30
2022-10-19T10:11:25.897Z,5.05
2022-10-19T10:13:54.767Z,7.97
2022-10-19T10:16:23.118Z,6.53
2022-10-19T10:18:58.639Z,5.72
2022-10-19T10:21:28.867Z,3.83
2022-10-19T10:24:11.897Z,4.38
2022-10-19T10:26:46.466Z,9.45
2022-10-19T10:29:29.165Z,5.28
2022-10-19T10:32:06.213Z,7.18
2022-10-19T10:34:45.669Z,4.07
2022-10-19T10:37:43.774Z,6.43
2022-10-19T10:40:28.456Z,5.00
2022-10-19T10:42:58.250Z,4.53
2022-10-19T10:45:34.606Z,2.65
2022-10-19T10:48:15.561Z,5.80
2022-10-19T10:50:42.198Z,3.50
2022-10-19T10:53:31.500Z,3.95
2022-10-19T10:55:58.280Z,3.50
2022-10-19T10:58:47.683Z,6.47
2022-10-19T11:01:24.538Z,4.40
2022-10-19T11:03:56.113Z,4.25
2022-10-19T11:06:26.069Z,4.43
2022-10-19T11:09:04.860Z,4.00
2022-10-19T11:11:37.189Z,4.60
2022-10-19T11:14:22.639Z,2.83
2022-10-19T11:16:50.625Z,3.72
2022-10-19T11:19:35.357Z,5.75
2022-10-19T11:22:17.006Z,2.30
2022-10-19T11:25:02.448Z,2.72
2022-10-19T11:28:08.071Z,3.35
2022-10-19T11:30:42.500Z,3.97
2022-10-19T11:36:33.424Z,2.80
2022-10-19T11:39:18.668Z,9.65
2022-10-19T11:42:00.560Z,4.13
2022-10-19T11:44:51.616Z,5.80
2022-10-19T11:47:43.205Z,3.47
2022-10-19T11:50:25.112Z,3.08
2022-10-19T11:53:16.734Z,3.78
2022-10-19T11:56:11.824Z,6.93
2022-10-19T11:58:38.433Z,4.17
2022-10-19T12:01:20.986Z,5.28
2022-10-19T12:04:15.070Z,5.03
2022-10-19T12:06:56.271Z,3.55
2022-10-19T12:09:28.739Z,5.10
2022-10-19T12:12:15.961Z,3.58
2022-10-19T12:14:44.234Z,3.72
2022-10-19T12:17:15.458Z,5.25
2022-10-19T12:19:48.225Z,3.53
2022-10-19T12:22:22.779Z,3.92
2022-10-19T12:24:53.297Z,3.58
2022-10-19T12:27:29.195Z,5.95
2022-10-19T12:29:58.938Z,4.25
2022-10-19T12:32:27.444Z,4.72
2022-10-19T12:35:04.642Z,4.38
2022-10-19T12:37:41.848Z,7.20
2022-10-19T12:40:23.495Z,3.33
2022-10-19T12:42:57.309Z,5.55
2022-10-19T12:45:37.022Z,4.68
2022-10-19T12:48:12.676Z,7.15
2022-10-19T12:50:48.452Z,3.92
2022-10-19T12:53:49.164Z,4.65
2022-10-19T12:56:19.990Z,4.60
2022-10-19T12:58:47.603Z,6.55
2022-10-19T13:01:23.881Z,5.03
2022-10-19T13:03:54.538Z,3.67
2022-10-19T13:06:24.210Z,4.15
2022-10-19T13:08:53.604Z,3.72
2022-10-19T13:11:20.754Z,4.53
2022-10-19T13:14:06.526Z,4.63
2022-10-19T13:16:56.770Z,4.93
2022-10-19T13:19:23.754Z,7.60
2022-10-19T13:22:03.382Z,4.75
2022-10-19T13:24:35.879Z,5.18
2022-10-19T13:27:02.468Z,4.47
2022-10-19T13:29:40.915Z,3.83
2022-10-19T13:32:37.200Z,4.65
2022-10-19T13:35:23.096Z,6.63
2022-10-19T13:38:12.172Z,6.50
2022-10-19T13:40:56.012Z,4.30
2022-10-19T13:43:29.581Z,5.20
2022-10-19T13:46:01.997Z,7.35
2022-10-19T13:48:34.861Z,8.00
2022-10-19T13:51:27.101Z,5.30
2022-10-19T13:54:20.159Z,6.60
2022-10-19T13:57:34.446Z,6.00
2022-10-19T14:00:03.803Z,7.20
2022-10-19T14:03:02.183Z,8.55
2022-10-19T14:05:52.710Z,6.40
2022-10-19T14:08:38.101Z,6.88
2022-10-19T14:11:16.230Z,11.10
2022-10-19T14:13:43.523Z,12.60
2022-10-19T14:16:20.932Z,10.45
2022-10-19T14:18:57.408Z,9.80
2022-10-19T14:21:32.771Z,8.75
2022-10-19T14:23:59.955Z,8.68
2022-10-19T14:26:31.114Z,8.85
2022-10-19T14:28:59.123Z,5.85
2022-10-19T14:31:31.958Z,3.53
2022-10-19T14:34:02.352Z,5.20
2022-10-19T14:36:35.308Z,11.50
2022-10-19T14:39:02.008Z,6.95
2022-10-19T14:41:28.660Z,6.05
2022-10-19T14:43:56.587Z,6.57
2022-10-19T14:46:34.404Z,7.78
2022-10-19T14:49:03.338Z,5.15
2022-10-19T14:51:40.500Z,7.35
2022-10-19T14:54:32.240Z,5.80
2022-10-19T14:57:02.105Z,9.98
2022-10-19T14:59:38.484Z,5.75
2022-10-19T15:02:22.666Z,10.77
2022-10-19T15:04:49.971Z,9.80
2022-10-19T15:07:30.231Z,8.07
2022-10-19T15:09:59.157Z,10.10
2022-10-19T15:12:28.969Z,7.05
2022-10-19T15:14:56.266Z,4.60
2022-10-19T15:17:28.415Z,5.43
2022-10-19T15:19:56.259Z,7.82
2022-10-19T15:22:28.104Z,9.23
2022-10-19T15:25:06.649Z,8.73
2022-10-19T15:27:34.568Z,9.05
2022-10-19T15:30:29.702Z,9.45
2022-10-19T15:33:10.688Z,6.67
2022-10-19T15:35:39.081Z,6.57
2022-10-19T15:38:26.062Z,9.23
2022-10-19T15:41:00.739Z,6.03
2022-10-19T15:43:30.358Z,5.38
2022-10-19T15:46:04.442Z,14.18
2022-10-19T15:48:52.317Z,7.72
2022-10-19T15:51:24.774Z,5.25
2022-10-19T15:53:59.395Z,6.13
2022-10-19T15:56:27.719Z,7.35
2022-10-19T15:58:59.011Z,6.68
2022-10-19T16:01:28.274Z,7.63
2022-10-19T16:03:55.251Z,6.68
2022-10-19T16:06:25.448Z,4.68
2022-10-19T16:08:54.160Z,8.25
2022-10-19T16:11:22.984Z,6.13
2022-10-19T16:13:49.647Z,6.55
2022-10-19T16:16:25.033Z,5.80
2022-10-19T16:18:52.388Z,5.97
2022-10-19T16:21:26.210Z,9.23
2022-10-19T16:23:52.980Z,5.90
2022-10-19T16:26:19.741Z,9.50
2022-10-19T16:28:48.677Z,8.35
2022-10-19T16:31:15.814Z,6.03
2022-10-19T16:33:42.454Z,6.55
2022-10-19T16:36:09.404Z,7.60
2022-10-19T16:38:36.777Z,10.88
2022-10-19T16:41:06.161Z,5.90
2022-10-19T16:43:33.025Z,6.70
2022-10-19T16:45:59.841Z,5.93
2022-10-19T16:48:27.207Z,7.13
2022-10-19T16:51:28.820Z,6.57
2022-10-19T16:53:57.386Z,9.05
2022-10-19T16:56:25.806Z,9.00
2022-10-19T16:59:03.135Z,6.07
2022-10-19T17:01:30.709Z,7.65
2022-10-19T17:03:57.865Z,7.88
2022-10-19T17:06:25.252Z,10.52
2022-10-19T17:09:29.868Z,7.88
2022-10-19T17:11:39.703Z,7.93
2022-10-19T17:14:08.782Z,12.38
2022-10-19T17:16:36.499Z,15.60
2022-10-19T17:19:04.837Z,16.02
2022-10-19T17:21:33.876Z,17.98
2022-10-19T17:24:02.550Z,8.98
2022-10-19T17:26:30.421Z,7.53
2022-10-19T17:28:57.481Z,3.80
2022-10-19T17:31:24.183Z,4.75
2022-10-19T17:33:51.068Z,6.63
2022-10-19T17:36:25.282Z,4.53
2022-10-19T17:38:56.616Z,4.95
2022-10-19T17:41:23.782Z,4.22
2022-10-19T17:43:54.224Z,4.78
2022-10-19T17:46:23.023Z,4.97
2022-10-19T17:48:49.819Z,6.07
2022-10-19T17:51:19.530Z,5.53
2022-10-19T17:53:47.927Z,7.90
2022-10-19T17:56:19.628Z,5.57
2022-10-19T17:58:46.440Z,4.65
2022-10-19T18:01:14.410Z,5.35
2022-10-19T18:03:41.186Z,3.63
2022-10-19T18:06:13.612Z,2.72
2022-10-19T18:08:45.172Z,2.40
2022-10-19T18:11:14.362Z,1.95
2022-10-19T18:13:41.599Z,1.50
2022-10-19T18:16:11.088Z,3.38
2022-10-19T18:18:39.878Z,1.40
2022-10-19T18:21:10.407Z,2.72
2022-10-19T18:23:38.120Z,3.88
2022-10-19T18:26:07.373Z,1.10
2022-10-19T18:28:34.534Z,1.67
2022-10-19T18:31:13.265Z,2.13
2022-10-19T18:33:40.426Z,2.15
2022-10-19T18:36:08.872Z,1.33
2022-10-19T18:38:35.587Z,2.42
2022-10-19T18:41:03.890Z,2.00
2022-10-19T18:43:30.692Z,4.28
2022-10-19T18:45:59.157Z,2.15
2022-10-19T18:48:27.551Z,2.00
2022-10-19T18:50:54.790Z,1.77
2022-10-19T18:53:22.050Z,1.95
2022-10-19T18:56:05.887Z,2.60
2022-10-19T18:58:33.810Z,3.47
2022-10-19T19:01:13.660Z,3.03
2022-10-19T19:03:42.502Z,3.60
2022-10-19T19:06:14.749Z,3.75
2022-10-19T19:08:41.706Z,2.42
2022-10-19T19:11:14.153Z,3.13
2022-10-19T19:13:41.381Z,2.30
2022-10-19T19:16:09.444Z,2.30
2022-10-19T19:18:36.181Z,2.58
2022-10-19T19:21:04.215Z,2.60
2022-10-19T19:23:31.142Z,3.78
2022-10-19T19:25:57.835Z,1.75
2022-10-19T19:28:24.701Z,3.58
2022-10-19T19:30:51.316Z,2.35
2022-10-19T19:33:17.993Z,2.10
2022-10-19T19:35:45.908Z,2.25
2022-10-19T19:38:13.649Z,4.13
2022-10-19T19:40:45.186Z,3.88
2022-10-19T19:43:13.481Z,2.08
2022-10-19T19:45:41.200Z,6.85
2022-10-19T19:48:09.034Z,2.67
2022-10-19T19:50:37.521Z,1.83
2022-10-19T19:53:04.963Z,2.00
2022-10-19T19:55:36.783Z,3.92
2022-10-19T19:58:05.630Z,3.55
2022-10-19T20:00:32.348Z,3.03
2022-10-19T20:02:59.822Z,4.30
2022-10-19T20:05:27.188Z,3.45
2022-10-19T20:07:53.890Z,3.55
2022-10-19T20:10:20.567Z,2.38
2022-10-19T20:12:47.755Z,3.05
2022-10-19T20:15:16.561Z,5.47
2022-10-19T20:17:43.517Z,3.03
2022-10-19T20:20:11.610Z,3.08
2022-10-19T20:22:38.434Z,3.83
2022-10-19T20:25:05.526Z,3.00
2022-10-19T20:27:35.588Z,2.97
2022-10-19T20:30:02.540Z,4.32
2022-10-19T20:32:29.583Z,3.10
2022-10-19T20:34:56.201Z,4.13
2022-10-19T20:37:23.620Z,2.80
2022-10-19T20:39:50.348Z,3.50
2022-10-19T20:42:18.291Z,2.75
2022-10-19T20:44:45.163Z,3.80
2022-10-19T20:47:12.118Z,3.63
2022-10-19T20:49:38.753Z,3.15
2022-10-19T20:52:05.408Z,3.80
